createdAt,value
2023-03-29T00:00:14.013Z,3.50
2023-03-29T00:02:42.633Z,3.50
2023-03-29T00:05:12.335Z,3.50
2023-03-29T00:07:41.218Z,3.50
2023-03-29T00:10:11.071Z,3.40
2023-03-29T00:12:39.722Z,3.50
2023-03-29T00:15:10.120Z,3.50
2023-03-29T00:17:38.113Z,3.50
2023-03-29T00:20:10.149Z,3.50
2023-03-29T00:22:39.819Z,3.50
2023-03-29T00:25:08.398Z,3.50
2023-03-29T00:27:36.514Z,3.50
2023-03-29T00:30:05.551Z,3.40
2023-03-29T00:32:35.753Z,3.30
2023-03-29T00:35:05.142Z,3.30
2023-03-29T00:37:33.816Z,3.30
2023-03-29T00:40:02.346Z,3.40
2023-03-29T00:42:31.378Z,3.40
2023-03-29T00:45:06.301Z,3.40
2023-03-29T00:47:41.494Z,3.30
2023-03-29T00:50:14.337Z,3.30
2023-03-29T00:52:43.754Z,3.30
2023-03-29T00:55:16.621Z,3.30
2023-03-29T00:57:46.816Z,3.30
2023-03-29T01:00:20.861Z,3.30
2023-03-29T01:02:55.226Z,3.30
2023-03-29T01:05:27.107Z,3.30
2023-03-29T01:07:58.974Z,3.30
2023-03-29T01:10:32.694Z,3.20
2023-03-29T01:13:07.722Z,3.20
2023-03-29T01:15:35.803Z,3.20
2023-03-29T01:18:06.553Z,3.20
2023-03-29T01:20:49.038Z,3.20
2023-03-29T01:23:51.096Z,3.20
2023-03-29T01:26:27.491Z,3.20
2023-03-29T01:29:00.726Z,3.10
2023-03-29T01:31:31.665Z,3.10
2023-03-29T01:34:03.376Z,3.20
2023-03-29T01:36:39.686Z,3.20
2023-03-29T01:39:08.449Z,3.20
2023-03-29T01:41:45.174Z,3.10
2023-03-29T01:44:18.825Z,3.20
2023-03-29T01:46:48.413Z,3.10
2023-03-29T01:49:23.885Z,3.10
2023-03-29T01:51:57.536Z,3.20
2023-03-29T01:54:29.437Z,3.20
2023-03-29T01:56:59.333Z,3.20
2023-03-29T01:59:32.407Z,3.20
2023-03-29T02:02:03.880Z,3.20
2023-03-29T02:04:34.948Z,3.20
2023-03-29T02:07:05.942Z,3.20
2023-03-29T02:09:35.188Z,3.20
2023-03-29T02:12:04.782Z,3.20
2023-03-29T02:14:35.107Z,3.20
2023-03-29T02:17:16.740Z,3.20
2023-03-29T02:19:50.048Z,3.20
2023-03-29T02:22:24.082Z,3.20
2023-03-29T02:24:56.592Z,3.20
2023-03-29T02:27:24.590Z,3.20
2023-03-29T02:29:54.258Z,3.20
2023-03-29T02:32:28.381Z,3.20
2023-03-29T02:34:59.855Z,3.20
2023-03-29T02:37:30.318Z,3.20
2023-03-29T02:40:00.113Z,3.20
2023-03-29T02:42:29.534Z,3.20
2023-03-29T02:45:01.210Z,3.20
2023-03-29T02:47:34.483Z,3.20
2023-03-29T02:50:02.951Z,3.20
2023-03-29T02:52:36.769Z,3.20
2023-03-29T02:55:09.765Z,3.20
2023-03-29T02:57:39.849Z,3.20
2023-03-29T03:00:11.006Z,3.20
2023-03-29T03:02:39.493Z,3.20
2023-03-29T03:05:08.306Z,3.20
2023-03-29T03:07:36.251Z,3.20
2023-03-29T03:10:04.918Z,3.20
2023-03-29T03:12:32.878Z,3.20
2023-03-29T03:15:00.836Z,3.20
2023-03-29T03:17:30.170Z,3.20
2023-03-29T03:19:58.160Z,3.20
2023-03-29T03:22:26.413Z,3.20
2023-03-29T03:24:54.359Z,3.20
2023-03-29T03:27:22.306Z,3.20
2023-03-29T03:29:50.272Z,3.20
2023-03-29T03:32:18.522Z,3.20
2023-03-29T03:34:47.871Z,3.20
2023-03-29T03:37:15.779Z,3.20
2023-03-29T03:39:43.734Z,3.20
2023-03-29T03:42:11.670Z,3.20
2023-03-29T03:44:39.701Z,3.20
2023-03-29T03:47:07.864Z,3.30
2023-03-29T03:49:35.897Z,3.20
2023-03-29T03:52:05.231Z,3.30
2023-03-29T03:54:33.213Z,3.20
2023-03-29T03:57:02.279Z,3.20
2023-03-29T03:59:30.272Z,3.20
2023-03-29T04:01:58.497Z,3.20
2023-03-29T04:04:27.049Z,3.20
2023-03-29T04:06:55.069Z,3.20
2023-03-29T04:09:24.367Z,3.20
2023-03-29T04:11:53.178Z,3.20
2023-03-29T04:14:21.587Z,3.20
2023-03-29T04:16:49.558Z,3.20
2023-03-29T04:19:17.707Z,3.20
2023-03-29T04:21:47.613Z,3.20
2023-03-29T04:24:15.599Z,3.20
2023-03-29T04:26:45.174Z,3.20
2023-03-29T04:29:13.476Z,3.20
2023-03-29T04:31:41.862Z,3.20
2023-03-29T04:34:09.994Z,3.20
2023-03-29T04:36:38.655Z,3.20
2023-03-29T04:39:07.884Z,3.20
2023-03-29T04:41:35.879Z,3.10
2023-03-29T04:44:05.270Z,3.10
2023-03-29T04:46:33.399Z,3.20
2023-03-29T04:49:01.578Z,3.20
2023-03-29T04:51:29.673Z,3.20
2023-03-29T04:53:57.865Z,3.20
2023-03-29T04:56:26.379Z,3.20
2023-03-29T04:58:54.733Z,3.20
2023-03-29T05:01:24.107Z,3.10
2023-03-29T05:03:52.487Z,3.20
2023-03-29T05:06:21.416Z,3.20
2023-03-29T05:08:49.520Z,3.10
2023-03-29T05:11:17.569Z,3.20
2023-03-29T05:13:45.546Z,3.10
2023-03-29T05:16:13.631Z,3.10
2023-03-29T05:18:43.327Z,3.10
2023-03-29T05:21:11.358Z,3.10
2023-03-29T05:23:39.597Z,3.10
2023-03-29T05:26:09.866Z,3.20
2023-03-29T05:28:37.992Z,3.20
2023-03-29T05:31:06.816Z,3.20
2023-03-29T05:33:35.454Z,3.20
2023-03-29T05:36:07.927Z,3.20
2023-03-29T05:38:36.950Z,3.20
2023-03-29T05:41:06.220Z,3.20
2023-03-29T05:43:34.828Z,3.20
2023-03-29T05:46:02.984Z,3.20
2023-03-29T05:48:31.018Z,3.30
2023-03-29T05:50:59.041Z,3.20
2023-03-29T05:53:28.939Z,3.30
2023-03-29T05:55:57.132Z,3.30
2023-03-29T05:58:26.573Z,3.30
2023-03-29T06:00:54.842Z,3.40
2023-03-29T06:03:27.325Z,3.50
2023-03-29T06:06:00.421Z,3.50
2023-03-29T06:08:30.578Z,3.50
2023-03-29T06:11:03.064Z,3.50
2023-03-29T06:13:34.089Z,3.60
2023-03-29T06:16:04.186Z,3.60
2023-03-29T06:18:32.919Z,3.70
2023-03-29T06:21:02.704Z,3.70
2023-03-29T06:23:32.650Z,3.80
2023-03-29T06:26:01.099Z,3.80
2023-03-29T06:28:29.128Z,3.90
2023-03-29T06:31:02.294Z,3.90
2023-03-29T06:33:32.307Z,3.90
2023-03-29T06:36:00.510Z,4.00
2023-03-29T06:38:28.730Z,4.00
2023-03-29T06:41:03.918Z,4.00
2023-03-29T06:43:34.672Z,4.10
2023-03-29T06:46:03.366Z,4.20
2023-03-29T06:48:31.701Z,4.20
2023-03-29T06:50:59.727Z,4.30
2023-03-29T06:53:28.125Z,4.30
2023-03-29T06:55:56.388Z,4.40
2023-03-29T06:58:25.784Z,4.40
2023-03-29T07:00:53.905Z,4.50
2023-03-29T07:03:23.419Z,4.60
2023-03-29T07:05:52.227Z,4.60
2023-03-29T07:08:21.313Z,4.70
2023-03-29T07:10:52.875Z,4.80
2023-03-29T07:13:20.900Z,4.90
2023-03-29T07:15:50.385Z,5.00
2023-03-29T07:18:18.446Z,5.10
2023-03-29T07:20:47.624Z,5.20
2023-03-29T07:23:15.837Z,5.30
2023-03-29T07:25:44.712Z,5.30
2023-03-29T07:28:13.037Z,5.40
2023-03-29T07:30:41.046Z,5.50
2023-03-29T07:33:10.498Z,5.50
2023-03-29T07:35:39.743Z,5.60
2023-03-29T07:38:08.227Z,5.70
2023-03-29T07:40:36.544Z,5.80
2023-03-29T07:43:08.959Z,5.90
2023-03-29T07:45:37.154Z,5.90
2023-03-29T07:48:05.978Z,6.10
2023-03-29T07:50:35.477Z,6.20
2023-03-29T07:53:03.540Z,6.30
2023-03-29T07:55:32.024Z,6.40
2023-03-29T07:58:00.023Z,6.40
2023-03-29T08:00:29.079Z,6.50
2023-03-29T08:02:57.398Z,6.60
2023-03-29T08:05:39.891Z,6.60
2023-03-29T08:08:10.252Z,6.70
2023-03-29T08:10:39.383Z,6.70
2023-03-29T08:13:09.228Z,6.80
2023-03-29T08:15:39.127Z,6.80
2023-03-29T08:18:07.478Z,6.90
2023-03-29T08:20:35.742Z,7.00
2023-03-29T08:23:03.788Z,7.10
2023-03-29T08:25:33.358Z,7.20
2023-03-29T08:28:01.464Z,7.30
2023-03-29T08:30:29.471Z,7.40
2023-03-29T08:32:58.041Z,7.60
2023-03-29T08:35:26.571Z,7.70
2023-03-29T08:37:54.601Z,7.80
2023-03-29T08:40:26.353Z,7.90
2023-03-29T08:43:20.575Z,8.00
2023-03-29T08:45:57.149Z,8.10
2023-03-29T08:48:29.887Z,8.00
2023-03-29T08:51:03.409Z,8.10
2023-03-29T08:53:36.509Z,8.20
2023-03-29T08:56:09.668Z,8.30
2023-03-29T08:58:39.298Z,8.30
2023-03-29T09:01:11.345Z,8.40
2023-03-29T09:03:43.963Z,8.60
2023-03-29T09:06:13.616Z,8.70
2023-03-29T09:08:44.838Z,8.80
2023-03-29T09:11:42.983Z,8.90
2023-03-29T09:14:32.616Z,9.00
2023-03-29T09:17:07.437Z,9.10
2023-03-29T09:19:40.489Z,9.10
2023-03-29T09:22:15.976Z,9.10
2023-03-29T09:24:54.695Z,9.10
2023-03-29T09:27:27.597Z,9.10
2023-03-29T09:30:07.925Z,9.10
2023-03-29T09:32:43.940Z,9.10
2023-03-29T09:35:19.204Z,9.10
2023-03-29T09:37:50.134Z,9.20
2023-03-29T09:40:21.591Z,9.30
2023-03-29T09:42:52.149Z,9.30
2023-03-29T09:45:22.073Z,9.20
2023-03-29T09:47:53.678Z,9.20
2023-03-29T09:50:31.495Z,9.20
2023-03-29T09:53:00.632Z,9.20
2023-03-29T09:55:31.287Z,9.20
2023-03-29T09:58:01.836Z,9.20
2023-03-29T10:00:31.196Z,9.20
2023-03-29T10:03:00.301Z,9.30
2023-03-29T10:05:33.000Z,9.40
2023-03-29T10:08:02.189Z,9.50
2023-03-29T10:10:31.899Z,9.60
2023-03-29T10:13:04.379Z,9.70
2023-03-29T10:15:34.300Z,9.80
2023-03-29T10:18:04.393Z,9.90
2023-03-29T10:20:36.545Z,10.00
2023-03-29T10:23:07.898Z,10.10
2023-03-29T10:25:42.574Z,9.90
2023-03-29T10:28:16.180Z,10.00
2023-03-29T10:30:48.636Z,10.20
2023-03-29T10:33:19.782Z,10.40
2023-03-29T10:35:49.229Z,10.40
2023-03-29T10:38:20.332Z,10.30
2023-03-29T10:40:50.312Z,10.20
2023-03-29T10:43:24.577Z,10.20
2023-03-29T10:45:55.996Z,10.20
2023-03-29T10:48:28.698Z,10.20
2023-03-29T10:51:01.114Z,10.30
2023-03-29T10:53:32.542Z,10.30
2023-03-29T10:56:13.737Z,10.30
2023-03-29T10:58:58.812Z,10.30
2023-03-29T11:01:36.042Z,10.20
2023-03-29T11:04:23.018Z,10.20
2023-03-29T11:07:01.988Z,10.30
2023-03-29T11:09:43.213Z,10.30
2023-03-29T11:12:20.883Z,10.40
2023-03-29T11:15:02.311Z,10.40
2023-03-29T11:17:50.895Z,10.40
2023-03-29T11:20:29.402Z,10.30
2023-03-29T11:23:07.364Z,10.30
2023-03-29T11:25:46.198Z,10.40
2023-03-29T11:28:22.505Z,10.30
2023-03-29T11:30:56.876Z,10.30
2023-03-29T11:33:41.620Z,10.40
2023-03-29T11:36:17.788Z,10.50
2023-03-29T11:38:59.439Z,10.50
2023-03-29T11:41:30.334Z,10.60
2023-03-29T11:44:02.377Z,10.60
2023-03-29T11:46:34.917Z,10.50
2023-03-29T11:49:10.230Z,10.50
2023-03-29T11:51:43.694Z,10.50
2023-03-29T11:54:17.896Z,10.50
2023-03-29T11:56:49.054Z,10.50
2023-03-29T11:59:24.221Z,10.60
2023-03-29T12:01:55.646Z,10.70
2023-03-29T12:04:29.867Z,10.70
2023-03-29T12:07:14.068Z,10.90
2023-03-29T12:09:46.742Z,11.00
2023-03-29T12:12:18.825Z,11.10
2023-03-29T12:14:55.649Z,11.10
2023-03-29T12:17:29.224Z,11.10
2023-03-29T12:20:05.472Z,11.10
2023-03-29T12:22:34.011Z,11.10
2023-03-29T12:25:04.232Z,11.10
2023-03-29T12:27:38.420Z,11.10
2023-03-29T12:30:27.295Z,11.10
2023-03-29T12:33:16.063Z,11.10
2023-03-29T12:35:56.316Z,11.10
2023-03-29T12:38:27.626Z,11.20
2023-03-29T12:40:59.968Z,11.20
2023-03-29T12:43:31.425Z,11.20
2023-03-29T12:46:06.936Z,11.20
2023-03-29T12:48:38.173Z,11.30
2023-03-29T12:51:13.363Z,11.30
2023-03-29T12:53:43.888Z,11.40
2023-03-29T12:56:16.186Z,11.40
2023-03-29T12:58:56.123Z,11.40
2023-03-29T13:01:30.181Z,11.40
2023-03-29T13:04:14.732Z,11.40
2023-03-29T13:07:03.927Z,11.40
2023-03-29T13:09:35.842Z,11.40
2023-03-29T13:12:22.744Z,11.40
2023-03-29T13:14:53.610Z,11.50
2023-03-29T13:17:27.656Z,11.50
2023-03-29T13:20:12.539Z,11.50
2023-03-29T13:22:52.946Z,11.50
2023-03-29T13:25:47.555Z,11.50
2023-03-29T13:28:22.358Z,11.50
2023-03-29T13:31:00.671Z,11.40
2023-03-29T13:34:05.465Z,11.40
2023-03-29T13:36:46.761Z,11.40
2023-03-29T13:39:21.517Z,11.30
2023-03-29T13:41:51.713Z,11.30
2023-03-29T13:44:27.638Z,11.30
2023-03-29T13:47:13.222Z,11.20
2023-03-29T13:49:45.030Z,11.20
2023-03-29T13:52:17.048Z,11.30
2023-03-29T13:54:53.064Z,11.30
2023-03-29T13:57:24.210Z,11.30
2023-03-29T13:59:58.353Z,11.20
2023-03-29T14:02:37.784Z,11.20
2023-03-29T14:05:09.349Z,11.10
2023-03-29T14:07:40.758Z,11.20
2023-03-29T14:10:15.550Z,11.20
2023-03-29T14:12:43.949Z,11.20
2023-03-29T14:15:23.217Z,11.20
2023-03-29T14:17:55.192Z,11.10
2023-03-29T14:20:23.925Z,11.10
2023-03-29T14:22:52.259Z,11.10
2023-03-29T14:25:23.902Z,11.00
2023-03-29T14:27:51.876Z,11.00
2023-03-29T14:30:27.309Z,11.00
2023-03-29T14:32:56.724Z,10.90
2023-03-29T14:35:33.162Z,10.90
2023-03-29T14:38:02.523Z,10.90
2023-03-29T14:40:32.512Z,10.90
2023-03-29T14:43:05.306Z,10.90
2023-03-29T14:45:33.554Z,10.90
2023-03-29T14:48:02.075Z,10.80
2023-03-29T14:50:31.410Z,10.80
2023-03-29T14:53:01.404Z,10.80
2023-03-29T14:55:31.004Z,10.80
2023-03-29T14:58:00.282Z,10.80
2023-03-29T15:00:31.146Z,10.80
2023-03-29T15:03:00.769Z,10.90
2023-03-29T15:05:36.741Z,10.90
2023-03-29T15:08:07.323Z,10.90
2023-03-29T15:10:38.900Z,10.90
2023-03-29T15:13:08.794Z,10.90
2023-03-29T15:15:39.101Z,10.90
2023-03-29T15:18:08.954Z,10.80
2023-03-29T15:20:39.692Z,10.80
2023-03-29T15:23:21.044Z,10.80
2023-03-29T15:25:54.727Z,10.80
2023-03-29T15:28:28.822Z,10.80
2023-03-29T15:33:36.006Z,10.70
2023-03-29T15:36:06.089Z,10.70
2023-03-29T15:38:43.309Z,10.70
2023-03-29T15:41:15.369Z,10.70
2023-03-29T15:43:43.959Z,10.70
2023-03-29T15:46:13.896Z,10.70
2023-03-29T15:48:42.166Z,10.70
2023-03-29T15:51:11.545Z,10.80
2023-03-29T15:53:39.817Z,10.80
2023-03-29T15:56:11.422Z,10.70
2023-03-29T15:58:40.958Z,10.80
2023-03-29T16:01:15.993Z,10.80
2023-03-29T16:03:47.640Z,10.80
2023-03-29T16:06:17.593Z,10.80
2023-03-29T16:08:46.037Z,10.70
2023-03-29T16:11:14.083Z,10.70
2023-03-29T16:13:43.491Z,10.70
2023-03-29T16:16:12.406Z,10.70
2023-03-29T16:18:40.574Z,10.70
2023-03-29T16:21:12.740Z,10.60
2023-03-29T16:23:40.816Z,10.60
2023-03-29T16:26:09.310Z,10.50
2023-03-29T16:28:37.720Z,10.50
2023-03-29T16:31:07.284Z,10.40
2023-03-29T16:33:35.264Z,10.30
2023-03-29T16:36:03.567Z,10.30
2023-03-29T16:38:34.082Z,10.30
2023-03-29T16:41:02.567Z,10.20
2023-03-29T16:43:30.664Z,10.20
2023-03-29T16:45:58.728Z,10.20
2023-03-29T16:48:28.230Z,10.10
2023-03-29T16:50:56.786Z,10.10
2023-03-29T16:53:24.732Z,10.10
2023-03-29T16:55:52.717Z,10.10
2023-03-29T16:58:21.219Z,10.00
2023-03-29T17:00:49.552Z,10.00
2023-03-29T17:03:17.782Z,10.00
2023-03-29T17:05:50.291Z,10.00
2023-03-29T17:08:18.729Z,10.00
2023-03-29T17:10:46.941Z,10.00
2023-03-29T17:13:14.908Z,10.00
2023-03-29T17:15:43.122Z,10.00
2023-03-29T17:18:11.136Z,9.90
2023-03-29T17:20:41.341Z,10.00
2023-03-29T17:23:10.663Z,9.90
2023-03-29T17:25:38.915Z,9.90
2023-03-29T17:28:06.889Z,9.90
2023-03-29T17:30:35.262Z,9.90
2023-03-29T17:33:03.743Z,9.90
2023-03-29T17:35:31.723Z,9.90
2023-03-29T17:38:00.419Z,9.80
2023-03-29T17:40:30.022Z,9.80
2023-03-29T17:42:58.016Z,9.80
2023-03-29T17:45:26.423Z,9.80
2023-03-29T17:47:54.390Z,9.80
2023-03-29T17:50:22.639Z,9.80
2023-03-29T17:52:50.622Z,9.80
2023-03-29T17:55:18.759Z,9.80
2023-03-29T17:57:48.949Z,9.80
2023-03-29T18:00:17.723Z,9.80
2023-03-29T18:02:46.154Z,9.80
2023-03-29T18:05:14.293Z,9.70
2023-03-29T18:07:42.253Z,9.70
2023-03-29T18:10:11.307Z,9.70
2023-03-29T18:12:39.884Z,9.70
2023-03-29T18:15:10.422Z,9.70
2023-03-29T18:17:38.442Z,9.70
2023-03-29T18:20:11.591Z,9.60
2023-03-29T18:22:41.326Z,9.70
2023-03-29T18:25:11.082Z,9.60
2023-03-29T18:27:39.477Z,9.60
2023-03-29T18:30:10.618Z,9.60
2023-03-29T18:32:38.673Z,9.60
2023-03-29T18:35:07.554Z,9.60
2023-03-29T18:37:36.248Z,9.50
2023-03-29T18:40:07.817Z,9.50
2023-03-29T18:42:35.925Z,9.50
2023-03-29T18:45:04.637Z,9.50
2023-03-29T18:47:35.147Z,9.40
2023-03-29T18:50:03.466Z,9.40
2023-03-29T18:52:31.506Z,9.40
2023-03-29T18:54:59.488Z,9.40
2023-03-29T18:57:27.560Z,9.40
2023-03-29T18:59:55.618Z,9.40
2023-03-29T19:02:23.632Z,9.40
2023-03-29T19:04:53.171Z,9.40
2023-03-29T19:07:21.999Z,9.40
2023-03-29T19:09:50.029Z,9.40
2023-03-29T19:12:18.027Z,9.40
2023-03-29T19:14:46.680Z,9.40
2023-03-29T19:17:14.677Z,9.30
2023-03-29T19:19:42.597Z,9.30
2023-03-29T19:22:11.989Z,9.30
2023-03-29T19:24:39.969Z,9.30
2023-03-29T19:27:09.642Z,9.30
2023-03-29T19:29:38.842Z,9.30
2023-03-29T19:32:07.283Z,9.30
2023-03-29T19:34:35.491Z,9.30
2023-03-29T19:37:03.492Z,9.30
2023-03-29T19:39:32.866Z,9.30
2023-03-29T19:42:00.995Z,9.30
2023-03-29T19:44:30.135Z,9.30
2023-03-29T19:46:58.398Z,9.20
2023-03-29T19:49:26.622Z,9.20
2023-03-29T19:51:55.530Z,9.20
2023-03-29T19:54:23.996Z,9.20
2023-03-29T19:56:53.459Z,9.20
2023-03-29T19:59:21.436Z,9.30
2023-03-29T20:01:51.746Z,9.20
2023-03-29T20:04:20.876Z,9.20
2023-03-29T20:06:49.130Z,9.20
2023-03-29T20:09:17.096Z,9.20
2023-03-29T20:11:46.612Z,9.20
2023-03-29T20:14:16.198Z,9.20
2023-03-29T20:16:44.821Z,9.20
2023-03-29T20:19:14.056Z,9.20
2023-03-29T20:21:42.194Z,9.20
2023-03-29T20:24:10.782Z,9.20
2023-03-29T20:26:38.755Z,9.20
2023-03-29T20:29:07.300Z,9.20
2023-03-29T20:31:40.131Z,9.20
2023-03-29T20:34:08.168Z,9.20
2023-03-29T20:36:37.192Z,9.20
2023-03-29T20:39:05.740Z,9.20
2023-03-29T20:41:33.792Z,9.20
2023-03-29T20:44:03.034Z,9.20
2023-03-29T20:46:34.095Z,9.20
2023-03-29T20:49:05.144Z,9.20
2023-03-29T20:51:33.680Z,9.20
2023-03-29T20:54:06.045Z,9.20
2023-03-29T20:56:37.327Z,9.20
2023-03-29T20:59:06.268Z,9.20
2023-03-29T21:01:35.054Z,9.20
2023-03-29T21:04:04.521Z,9.20
2023-03-29T21:06:33.441Z,9.20
2023-03-29T21:09:01.401Z,9.10
2023-03-29T21:11:29.398Z,9.10
2023-03-29T21:13:57.386Z,9.10
2023-03-29T21:16:26.089Z,9.10
2023-03-29T21:18:54.574Z,9.10
2023-03-29T21:21:23.987Z,9.10
2023-03-29T21:23:51.970Z,9.10
2023-03-29T21:26:19.938Z,9.10
2023-03-29T21:28:48.685Z,9.10
2023-03-29T21:31:16.857Z,9.10
2023-03-29T21:33:44.829Z,9.10
2023-03-29T21:36:12.861Z,9.10
2023-03-29T21:38:42.197Z,9.10
2023-03-29T21:41:11.992Z,9.10
2023-03-29T21:43:40.363Z,9.10
2023-03-29T21:46:09.096Z,9.10
2023-03-29T21:48:37.105Z,9.10
2023-03-29T21:51:06.281Z,9.10
2023-03-29T21:53:34.492Z,9.10
2023-03-29T21:56:04.246Z,9.10
2023-03-29T21:58:32.243Z,9.10
2023-03-29T22:01:00.392Z,9.10
2023-03-29T22:03:28.390Z,9.10
2023-03-29T22:05:57.847Z,9.10
2023-03-29T22:08:26.262Z,9.10
2023-03-29T22:10:57.980Z,9.10
2023-03-29T22:13:29.585Z,9.00
2023-03-29T22:15:59.648Z,9.00
2023-03-29T22:18:30.086Z,9.00
2023-03-29T22:20:58.251Z,9.00
2023-03-29T22:23:26.286Z,9.00
2023-03-29T22:25:54.252Z,9.00
2023-03-29T22:28:22.235Z,9.00
2023-03-29T22:30:51.556Z,9.00
2023-03-29T22:33:19.500Z,9.00
2023-03-29T22:35:47.497Z,9.00
2023-03-29T22:38:15.495Z,9.00
2023-03-29T22:40:43.490Z,9.00
2023-03-29T22:43:11.463Z,8.90
2023-03-29T22:45:39.431Z,8.90
2023-03-29T22:48:08.917Z,8.90
2023-03-29T22:50:36.954Z,8.90
2023-03-29T22:53:04.978Z,8.90
2023-03-29T22:55:32.950Z,8.90
2023-03-29T22:58:01.065Z,8.90
2023-03-29T23:00:29.051Z,8.90
2023-03-29T23:02:57.038Z,8.90
2023-03-29T23:05:26.508Z,8.90
2023-03-29T23:07:55.777Z,8.80
2023-03-29T23:10:28.693Z,8.90
2023-03-29T23:13:08.795Z,8.80
2023-03-29T23:15:37.171Z,8.80
2023-03-29T23:18:05.805Z,8.80
2023-03-29T23:20:35.180Z,8.80
2023-03-29T23:23:04.023Z,8.80
2023-03-29T23:25:32.397Z,8.70
2023-03-29T23:28:00.731Z,8.70
2023-03-29T23:30:29.669Z,8.70
2023-03-29T23:32:58.264Z,8.70
2023-03-29T23:35:26.516Z,8.70
2023-03-29T23:37:55.919Z,8.70
2023-03-29T23:40:24.429Z,8.70
2023-03-29T23:42:53.033Z,8.70
2023-03-29T23:45:21.012Z,8.70
2023-03-29T23:47:48.987Z,8.70
2023-03-29T23:50:17.093Z,8.70
2023-03-29T23:52:46.610Z,8.70
2023-03-29T23:55:16.419Z,8.70
2023-03-29T23:57:44.424Z,8.70
